createdAt,value
2023-08-12T00:03:18.531Z,7.15
2023-08-12T00:08:22.568Z,7.75
2023-08-12T00:13:27.675Z,6.85
2023-08-12T00:18:37.813Z,7.22
2023-08-12T00:23:44.166Z,7.20
2023-08-12T00:28:52.562Z,6.68
2023-08-12T00:33:57.856Z,6.78
2023-08-12T00:39:02.200Z,6.78
2023-08-12T00:44:06.600Z,6.30
2023-08-12T00:49:15.240Z,6.43
2023-08-12T00:54:20.041Z,6.90
2023-08-12T00:59:24.891Z,6.53
2023-08-12T01:04:30.369Z,6.40
2023-08-12T01:09:34.583Z,6.15
2023-08-12T01:14:47.615Z,6.15
2023-08-12T01:19:53.949Z,6.07
2023-08-12T01:24:59.687Z,6.93
2023-08-12T01:30:06.721Z,5.82
2023-08-12T01:35:17.090Z,6.35
2023-08-12T01:40:23.573Z,6.13
2023-08-12T01:45:27.497Z,6.07
2023-08-12T01:50:31.509Z,6.82
2023-08-12T01:55:37.186Z,6.55
2023-08-12T02:00:41.265Z,6.50
2023-08-12T02:05:45.387Z,5.90
2023-08-12T02:10:51.053Z,6.03
2023-08-12T02:15:54.961Z,5.68
2023-08-12T02:21:00.586Z,5.88
2023-08-12T02:26:06.018Z,6.22
2023-08-12T02:31:10.070Z,5.93
2023-08-12T02:36:14.126Z,5.68
2023-08-12T02:41:19.476Z,6.28
2023-08-12T02:46:23.575Z,5.88
2023-08-12T02:51:27.508Z,5.35
2023-08-12T02:56:32.860Z,5.40
2023-08-12T03:01:36.914Z,5.82
2023-08-12T03:06:41.025Z,5.28
2023-08-12T03:11:46.617Z,5.63
2023-08-12T03:16:50.873Z,5.82
2023-08-12T03:21:54.770Z,5.53
2023-08-12T03:27:01.810Z,6.55
2023-08-12T03:32:07.524Z,5.53
2023-08-12T03:37:12.928Z,5.90
2023-08-12T03:42:19.563Z,5.50
2023-08-12T03:47:25.728Z,5.70
2023-08-12T03:52:29.877Z,5.65
2023-08-12T03:57:35.770Z,5.78
2023-08-12T04:02:40.358Z,5.70
2023-08-12T04:07:44.781Z,5.82
2023-08-12T04:12:50.070Z,5.90
2023-08-12T04:17:55.559Z,5.20
2023-08-12T04:22:59.488Z,5.75
2023-08-12T04:28:05.424Z,5.97
2023-08-12T04:33:13.195Z,5.93
2023-08-12T04:38:19.140Z,6.00
2023-08-12T04:43:26.125Z,5.22
2023-08-12T04:53:34.046Z,4.95
2023-08-12T04:58:39.715Z,5.15
2023-08-12T05:03:44.297Z,5.60
2023-08-12T05:08:48.330Z,5.50
2023-08-12T05:13:54.473Z,5.40
2023-08-12T05:18:58.309Z,5.32
2023-08-12T05:24:03.046Z,5.05
2023-08-12T05:29:09.180Z,5.38
2023-08-12T05:34:13.145Z,5.00
2023-08-12T05:39:17.619Z,5.13
2023-08-12T05:44:23.245Z,5.47
2023-08-12T05:54:31.047Z,5.13
2023-08-12T05:59:36.316Z,4.70
2023-08-12T06:04:40.327Z,5.15
2023-08-12T06:09:44.475Z,5.13
2023-08-12T06:14:49.819Z,4.97
2023-08-12T06:19:53.646Z,4.60
2023-08-12T06:24:57.592Z,5.50
2023-08-12T06:30:03.010Z,5.00
2023-08-12T06:40:11.253Z,4.95
2023-08-12T06:45:45.344Z,3.90
2023-08-12T06:50:55.456Z,4.22
2023-08-12T06:55:59.813Z,4.75
2023-08-12T07:01:05.202Z,4.35
2023-08-12T07:06:10.702Z,4.80
2023-08-12T07:11:14.682Z,4.57
2023-08-12T07:16:19.906Z,3.80
2023-08-12T07:21:24.041Z,4.50
2023-08-12T07:26:28.586Z,4.07
2023-08-12T07:31:34.367Z,4.13
2023-08-12T07:36:38.313Z,4.25
2023-08-12T07:41:42.247Z,4.30
2023-08-12T07:46:48.059Z,3.85
2023-08-12T07:51:52.693Z,4.00
2023-08-12T07:56:56.978Z,3.92
2023-08-12T08:02:02.532Z,4.20
2023-08-12T08:07:07.005Z,3.92
2023-08-12T08:12:14.654Z,3.58
2023-08-12T08:17:20.452Z,3.55
2023-08-12T08:22:24.570Z,4.43
2023-08-12T08:27:28.718Z,4.20
2023-08-12T08:32:34.290Z,3.88
2023-08-12T08:37:38.330Z,3.55
2023-08-12T08:42:45.371Z,3.70
2023-08-12T08:47:52.879Z,3.45
2023-08-12T08:52:58.955Z,3.17
2023-08-12T08:58:05.950Z,3.65
2023-08-12T09:03:13.974Z,3.70
2023-08-12T09:08:18.132Z,2.67
2023-08-12T09:13:22.017Z,3.42
2023-08-12T09:18:28.412Z,3.80
2023-08-12T09:23:37.685Z,3.13
2023-08-12T09:28:41.588Z,3.00
2023-08-12T09:33:47.495Z,2.63
2023-08-12T09:38:51.476Z,2.90
2023-08-12T09:43:55.374Z,2.50
2023-08-12T09:49:00.839Z,2.60
2023-08-12T09:54:05.553Z,3.17
2023-08-12T09:59:11.328Z,2.88
2023-08-12T10:04:19.329Z,2.60
2023-08-12T10:09:23.661Z,2.40
2023-08-12T10:14:29.305Z,2.65
2023-08-12T10:19:36.029Z,2.85
2023-08-12T10:24:41.803Z,2.70
2023-08-12T10:29:46.095Z,3.03
2023-08-12T10:34:56.707Z,2.88
2023-08-12T10:40:00.734Z,2.70
2023-08-12T10:45:07.919Z,3.10
2023-08-12T10:50:24.292Z,4.60
2023-08-12T10:55:30.079Z,3.00
2023-08-12T11:00:34.006Z,2.88
2023-08-12T11:05:40.202Z,2.70
2023-08-12T11:10:46.556Z,3.60
2023-08-12T11:20:57.161Z,2.73
2023-08-12T11:26:02.997Z,2.97
2023-08-12T11:31:07.188Z,2.67
2023-08-12T11:36:12.772Z,3.10
2023-08-12T11:41:19.700Z,2.95
2023-08-12T11:46:23.637Z,2.80
2023-08-12T11:51:29.159Z,2.53
2023-08-12T11:56:33.294Z,2.70
2023-08-12T12:01:37.191Z,2.97
2023-08-12T12:06:42.744Z,3.17
2023-08-12T12:11:47.006Z,3.00
2023-08-12T12:16:52.212Z,2.72
2023-08-12T12:21:57.661Z,3.03
2023-08-12T12:27:02.177Z,2.90
2023-08-12T12:32:06.584Z,3.63
2023-08-12T12:37:11.833Z,3.35
2023-08-12T12:42:15.987Z,2.95
2023-08-12T12:52:25.581Z,2.90
2023-08-12T12:57:29.884Z,2.70
2023-08-12T13:02:36.772Z,3.20
2023-08-12T13:07:42.609Z,3.08
2023-08-12T13:12:46.680Z,2.90
2023-08-12T13:17:52.061Z,3.03
2023-08-12T13:22:57.594Z,2.88
2023-08-12T13:28:01.743Z,2.70
2023-08-12T13:33:07.143Z,3.00
2023-08-12T13:38:12.782Z,3.13
2023-08-12T13:43:16.724Z,7.90
2023-08-12T13:48:20.832Z,2.83
2023-08-12T13:53:26.238Z,2.40
2023-08-12T13:58:30.371Z,3.00
2023-08-12T14:08:40.122Z,3.20
2023-08-12T14:13:44.018Z,2.72
2023-08-12T14:18:47.911Z,3.03
2023-08-12T14:23:53.288Z,3.30
2023-08-12T14:28:59.872Z,2.90
2023-08-12T14:34:04.583Z,2.97
2023-08-12T14:39:09.949Z,2.80
2023-08-12T14:44:13.945Z,3.10
2023-08-12T14:49:17.918Z,3.47
2023-08-12T14:54:23.425Z,2.75
2023-08-12T14:59:27.294Z,2.92
2023-08-12T15:04:31.246Z,3.80
2023-08-12T15:14:40.328Z,2.83
2023-08-12T15:24:49.432Z,3.07
2023-08-12T15:29:53.469Z,2.92
2023-08-12T15:40:03.431Z,2.80
2023-08-12T15:45:08.560Z,2.75
2023-08-12T15:50:12.854Z,3.33
2023-08-12T16:00:22.686Z,2.80
2023-08-12T16:05:26.943Z,2.90
2023-08-12T16:10:32.374Z,2.80
2023-08-12T16:15:39.812Z,3.00
2023-08-12T16:20:43.784Z,2.70
2023-08-12T16:25:49.125Z,3.30
2023-08-12T16:30:53.624Z,2.97
2023-08-12T16:35:58.078Z,3.30
2023-08-12T16:41:04.894Z,3.72
2023-08-12T16:46:09.407Z,3.30
2023-08-12T16:51:13.719Z,3.25
2023-08-12T16:56:24.560Z,2.80
2023-08-12T17:01:38.621Z,3.55
2023-08-12T17:06:42.631Z,3.60
2023-08-12T17:11:48.005Z,3.60
2023-08-12T17:16:51.979Z,4.38
2023-08-12T17:21:55.948Z,4.90
2023-08-12T17:27:01.499Z,15.15
2023-08-12T17:32:05.741Z,7.63
2023-08-12T17:37:09.734Z,7.93
2023-08-12T17:42:15.207Z,9.10
2023-08-12T17:47:19.348Z,6.43
2023-08-12T17:52:26.539Z,4.97
2023-08-12T17:57:31.902Z,5.70
2023-08-12T18:02:36.015Z,5.13
2023-08-12T18:07:40.083Z,6.30
2023-08-12T18:12:45.672Z,7.40
2023-08-12T18:17:52.038Z,7.20
2023-08-12T18:22:56.331Z,6.32
2023-08-12T18:28:02.405Z,10.15
2023-08-12T18:33:07.201Z,7.40
2023-08-12T18:38:11.487Z,11.65
2023-08-12T18:43:16.938Z,9.90
2023-08-12T18:48:21.082Z,9.18
2023-08-12T18:53:25.155Z,8.95
2023-08-12T18:58:30.900Z,11.27
2023-08-12T19:03:35.253Z,8.80
2023-08-12T19:08:39.637Z,12.25
2023-08-12T19:13:49.301Z,14.80
2023-08-12T19:18:53.313Z,13.60
2023-08-12T19:23:57.332Z,15.02
2023-08-12T19:29:03.345Z,14.40
2023-08-12T19:34:07.632Z,15.60
2023-08-12T19:39:12.282Z,15.38
2023-08-12T19:44:17.711Z,15.57
2023-08-12T19:54:27.549Z,14.07
2023-08-12T19:59:33.087Z,13.55
2023-08-12T20:09:40.911Z,13.43
2023-08-12T20:14:46.762Z,12.30
2023-08-12T20:19:50.649Z,10.95
2023-08-12T20:24:54.820Z,10.75
2023-08-12T20:30:01.358Z,12.43
2023-08-12T20:40:11.148Z,12.60
2023-08-12T20:50:20.723Z,13.90
2023-08-12T20:55:24.793Z,13.95
2023-08-12T21:00:30.753Z,13.60
2023-08-12T21:05:38.197Z,13.85
2023-08-12T21:10:42.413Z,12.45
2023-08-12T21:15:48.024Z,12.18
2023-08-12T21:20:52.008Z,10.80
2023-08-12T21:25:56.043Z,14.52
2023-08-12T21:31:01.530Z,14.10
2023-08-12T21:41:09.468Z,13.70
2023-08-12T21:46:15.057Z,13.32
2023-08-12T21:51:23.718Z,11.75
2023-08-12T21:56:28.225Z,11.48
2023-08-12T22:01:33.665Z,12.60
2023-08-12T22:11:41.594Z,11.63
2023-08-12T22:16:46.967Z,11.23
2023-08-12T22:21:51.200Z,11.77
2023-08-12T22:26:55.798Z,11.33
2023-08-12T22:32:01.164Z,11.13
2023-08-12T22:37:05.312Z,10.30
2023-08-12T22:42:09.475Z,10.27
2023-08-12T22:47:14.795Z,9.15
2023-08-12T22:52:18.786Z,9.80
2023-08-12T22:57:22.672Z,9.20
2023-08-12T23:02:28.288Z,8.88
2023-08-12T23:07:32.368Z,8.52
2023-08-12T23:12:36.430Z,8.73
2023-08-12T23:17:41.806Z,8.60
2023-08-12T23:27:49.804Z,8.80
2023-08-12T23:32:55.252Z,7.90
2023-08-12T23:37:59.308Z,8.40
2023-08-12T23:43:03.833Z,7.65
2023-08-12T23:48:09.707Z,8.47
2023-08-12T23:58:17.645Z,7.80
